sensor_id;sensor_type;location;lat;lon;timestamp;pressure;altitude;pressure_sealevel;temperature;humidity
62789;BME280;66401;42.016;21.454;2024-03-17T00:01:44;98535.44;;;12.94;79.62
62789;BME280;66401;42.016;21.454;2024-03-17T00:04:09;98528.16;;;12.83;80.07
62789;BME280;66401;42.016;21.454;2024-03-17T00:06:36;98538.03;;;12.87;80.61
62789;BME280;66401;42.016;21.454;2024-03-17T00:09:01;98536.22;;;12.81;81.79
62789;BME280;66401;42.016;21.454;2024-03-17T00:11:34;98540.25;;;12.90;80.67
62789;BME280;66401;42.016;21.454;2024-03-17T00:14:03;98534.19;;;12.83;79.66
62789;BME280;66401;42.016;21.454;2024-03-17T00:16:30;98535.44;;;12.94;79.36
62789;BME280;66401;42.016;21.454;2024-03-17T00:18:56;98534.81;;;12.92;80.67
62789;BME280;66401;42.016;21.454;2024-03-17T00:21:22;98535.84;;;12.98;79.29
62789;BME280;66401;42.016;21.454;2024-03-17T00:23:48;98538.88;;;12.95;80.60
62789;BME280;66401;42.016;21.454;2024-03-17T00:26:15;98539.66;;;13.02;79.16
62789;BME280;66401;42.016;21.454;2024-03-17T00:28:40;98532.81;;;13.01;78.75
62789;BME280;66401;42.016;21.454;2024-03-17T00:31:07;98528.59;;;13.00;80.02
62789;BME280;66401;42.016;21.454;2024-03-17T00:33:35;98529.41;;;12.94;79.72
62789;BME280;66401;42.016;21.454;2024-03-17T00:36:01;98531.00;;;13.01;78.64
62789;BME280;66401;42.016;21.454;2024-03-17T00:38:26;98531.63;;;12.97;79.97
62789;BME280;66401;42.016;21.454;2024-03-17T00:40:52;98527.38;;;12.82;81.39
62789;BME280;66401;42.016;21.454;2024-03-17T00:43:17;98536.22;;;12.88;82.48
62789;BME280;66401;42.016;21.454;2024-03-17T00:45:43;98524.38;;;12.85;81.64
62789;BME280;66401;42.016;21.454;2024-03-17T00:48:08;98539.06;;;12.86;83.80
62789;BME280;66401;42.016;21.454;2024-03-17T00:50:34;98524.56;;;12.77;81.37
62789;BME280;66401;42.016;21.454;2024-03-17T00:53:00;98530.19;;;12.87;81.14
62789;BME280;66401;42.016;21.454;2024-03-17T00:55:28;98515.31;;;12.81;81.23
62789;BME280;66401;42.016;21.454;2024-03-17T00:57:53;98527.38;;;12.69;83.45
62789;BME280;66401;42.016;21.454;2024-03-17T01:00:19;98534.00;;;12.65;83.78
62789;BME280;66401;42.016;21.454;2024-03-17T01:02:45;98536.22;;;12.68;83.03
62789;BME280;66401;42.016;21.454;2024-03-17T01:05:11;98536.78;;;12.64;85.46
62789;BME280;66401;42.016;21.454;2024-03-17T01:07:36;98533.19;;;12.58;85.32
62789;BME280;66401;42.016;21.454;2024-03-17T01:10:02;98528.16;;;12.56;85.31
62789;BME280;66401;42.016;21.454;2024-03-17T01:12:27;98536.59;;;12.72;84.87
62789;BME280;66401;42.016;21.454;2024-03-17T01:14:53;98533.22;;;12.78;84.21
62789;BME280;66401;42.016;21.454;2024-03-17T01:17:18;98524.34;;;12.72;83.01
62789;BME280;66401;42.016;21.454;2024-03-17T01:19:45;98531.00;;;12.75;83.42
62789;BME280;66401;42.016;21.454;2024-03-17T01:22:10;98534.56;;;12.60;86.57
62789;BME280;66401;42.016;21.454;2024-03-17T01:24:36;98532.75;;;12.48;86.99
62789;BME280;66401;42.016;21.454;2024-03-17T01:27:05;98537.78;;;12.63;86.11
62789;BME280;66401;42.016;21.454;2024-03-17T01:29:30;98537.41;;;12.59;86.06
62789;BME280;66401;42.016;21.454;2024-03-17T01:31:55;98534.72;;;12.39;86.33
62789;BME280;66401;42.016;21.454;2024-03-17T01:34:21;98535.53;;;12.40;87.37
62789;BME280;66401;42.016;21.454;2024-03-17T01:36:47;98535.31;;;12.35;88.23
62789;BME280;66401;42.016;21.454;2024-03-17T01:39:12;98532.47;;;12.23;88.41
62789;BME280;66401;42.016;21.454;2024-03-17T01:41:38;98529.59;;;12.11;87.78
62789;BME280;66401;42.016;21.454;2024-03-17T01:44:04;98535.22;;;12.15;88.62
62789;BME280;66401;42.016;21.454;2024-03-17T01:46:30;98524.38;;;12.11;88.99
62789;BME280;66401;42.016;21.454;2024-03-17T01:48:55;98536.78;;;12.02;89.03
62789;BME280;66401;42.016;21.454;2024-03-17T01:51:21;98533.63;;;12.07;88.36
62789;BME280;66401;42.016;21.454;2024-03-17T01:53:48;98532.97;;;12.05;85.13
62789;BME280;66401;42.016;21.454;2024-03-17T01:56:15;98527.13;;;11.96;86.20
62789;BME280;66401;42.016;21.454;2024-03-17T01:58:44;98536.75;;;11.96;86.36
62789;BME280;66401;42.016;21.454;2024-03-17T02:01:10;98530.94;;;11.94;86.34
62789;BME280;66401;42.016;21.454;2024-03-17T02:03:35;98538.41;;;11.97;87.01
62789;BME280;66401;42.016;21.454;2024-03-17T02:06:01;98528.56;;;11.99;86.69
62789;BME280;66401;42.016;21.454;2024-03-17T02:08:27;98529.59;;;12.11;85.20
62789;BME280;66401;42.016;21.454;2024-03-17T02:10:55;98528.41;;;12.07;85.33
62789;BME280;66401;42.016;21.454;2024-03-17T02:13:21;98526.94;;;11.98;85.44
62789;BME280;66401;42.016;21.454;2024-03-17T02:15:48;98527.97;;;12.03;86.14
62789;BME280;66401;42.016;21.454;2024-03-17T02:18:13;98528.59;;;12.12;84.58
62789;BME280;66401;42.016;21.454;2024-03-17T02:20:39;98525.59;;;12.15;85.76
62789;BME280;66401;42.016;21.454;2024-03-17T02:23:20;98528.25;;;12.22;84.46
62789;BME280;66401;42.016;21.454;2024-03-17T02:25:46;98523.22;;;12.20;85.78
62789;BME280;66401;42.016;21.454;2024-03-17T02:28:13;98521.81;;;12.24;85.57
62789;BME280;66401;42.016;21.454;2024-03-17T02:30:38;98518.81;;;12.34;84.96
62789;BME280;66401;42.016;21.454;2024-03-17T02:33:04;98505.38;;;12.30;83.98
62789;BME280;66401;42.016;21.454;2024-03-17T02:35:29;98522.03;;;12.29;85.22
62789;BME280;66401;42.016;21.454;2024-03-17T02:37:55;98517.78;;;12.22;85.91
62789;BME280;66401;42.016;21.454;2024-03-17T02:40:20;98520.00;;;12.18;85.60
62789;BME280;66401;42.016;21.454;2024-03-17T02:42:46;98514.34;;;12.15;85.75
62789;BME280;66401;42.016;21.454;2024-03-17T02:45:12;98515.94;;;12.09;86.00
62789;BME280;66401;42.016;21.454;2024-03-17T02:47:38;98513.53;;;12.14;85.98
62789;BME280;66401;42.016;21.454;2024-03-17T02:50:04;98525.22;;;12.25;84.57
62789;BME280;66401;42.016;21.454;2024-03-17T02:52:30;98517.97;;;12.14;84.81
62789;BME280;66401;42.016;21.454;2024-03-17T02:54:55;98520.81;;;12.19;84.35
62789;BME280;66401;42.016;21.454;2024-03-17T02:57:22;98519.59;;;12.21;85.34
62789;BME280;66401;42.016;21.454;2024-03-17T02:59:50;98514.34;;;12.15;83.84
62789;BME280;66401;42.016;21.454;2024-03-17T03:02:16;98507.50;;;12.07;85.00
62789;BME280;66401;42.016;21.454;2024-03-17T03:04:41;98523.63;;;12.17;84.13
62789;BME280;66401;42.016;21.454;2024-03-17T03:07:07;98520.19;;;12.23;83.17
62789;BME280;66401;42.016;21.454;2024-03-17T03:09:32;98493.81;;;12.05;83.24
62789;BME280;66401;42.016;21.454;2024-03-17T03:11:58;98522.44;;;12.26;82.99
62789;BME280;66401;42.016;21.454;2024-03-17T03:14:28;98513.78;;;12.19;83.42
62789;BME280;66401;42.016;21.454;2024-03-17T03:16:54;98526.22;;;12.24;83.91
62789;BME280;66401;42.016;21.454;2024-03-17T03:19:20;98524.81;;;12.21;83.66
62789;BME280;66401;42.016;21.454;2024-03-17T03:21:45;98526.59;;;12.14;84.57
62789;BME280;66401;42.016;21.454;2024-03-17T03:24:13;98523.19;;;12.14;84.69
62789;BME280;66401;42.016;21.454;2024-03-17T03:26:38;98532.84;;;12.20;84.06
62789;BME280;66401;42.016;21.454;2024-03-17T03:29:04;98528.84;;;12.24;84.78
62789;BME280;66401;42.016;21.454;2024-03-17T03:31:33;98523.38;;;12.12;84.13
62789;BME280;66401;42.016;21.454;2024-03-17T03:33:59;98528.41;;;12.14;84.50
62789;BME280;66401;42.016;21.454;2024-03-17T03:36:26;98519.56;;;12.08;84.56
62789;BME280;66401;42.016;21.454;2024-03-17T03:38:52;98524.78;;;12.08;84.92
62789;BME280;66401;42.016;21.454;2024-03-17T03:41:19;98525.34;;;12.03;85.59
62789;BME280;66401;42.016;21.454;2024-03-17T03:43:45;98524.50;;;11.90;84.77
62789;BME280;66401;42.016;21.454;2024-03-17T03:46:12;98525.72;;;11.94;85.36
62789;BME280;66401;42.016;21.454;2024-03-17T03:48:38;98534.38;;;12.01;83.70
62789;BME280;66401;42.016;21.454;2024-03-17T03:51:05;98537.19;;;11.99;83.92
62789;BME280;66401;42.016;21.454;2024-03-17T03:53:31;98538.44;;;12.10;83.63
62789;BME280;66401;42.016;21.454;2024-03-17T03:55:57;98537.59;;;12.03;84.76
62789;BME280;66401;42.016;21.454;2024-03-17T03:58:23;98510.59;;;11.83;84.16
62789;BME280;66401;42.016;21.454;2024-03-17T04:00:49;98540.00;;;11.98;83.94
62789;BME280;66401;42.016;21.454;2024-03-17T04:03:15;98543.41;;;11.98;83.88
62789;BME280;66401;42.016;21.454;2024-03-17T04:05:41;98546.75;;;11.86;84.08
62789;BME280;66401;42.016;21.454;2024-03-17T04:08:06;98548.78;;;11.90;84.70
62789;BME280;66401;42.016;21.454;2024-03-17T04:10:32;98548.41;;;11.93;82.81
62789;BME280;66401;42.016;21.454;2024-03-17T04:12:57;98541.75;;;11.91;81.39
62789;BME280;66401;42.016;21.454;2024-03-17T04:15:23;98540.56;;;11.93;81.34
62789;BME280;66401;42.016;21.454;2024-03-17T04:17:48;98540.34;;;11.88;80.35
62789;BME280;66401;42.016;21.454;2024-03-17T04:20:14;98539.91;;;11.85;79.41
62789;BME280;66401;42.016;21.454;2024-03-17T04:22:41;98554.84;;;11.97;78.64
62789;BME280;66401;42.016;21.454;2024-03-17T04:25:08;98558.03;;;11.93;78.95
62789;BME280;66401;42.016;21.454;2024-03-17T04:27:34;98547.53;;;11.80;79.25
62789;BME280;66401;42.016;21.454;2024-03-17T04:30:00;98555.06;;;11.68;78.74
62789;BME280;66401;42.016;21.454;2024-03-17T04:32:26;98564.31;;;11.70;78.85
62789;BME280;66401;42.016;21.454;2024-03-17T04:34:56;98548.25;;;11.73;78.17
62789;BME280;66401;42.016;21.454;2024-03-17T04:37:21;98555.38;;;11.80;77.64
62789;BME280;66401;42.016;21.454;2024-03-17T04:39:48;98564.41;;;11.84;77.02
62789;BME280;66401;42.016;21.454;2024-03-17T04:42:15;98571.84;;;11.87;77.46
62789;BME280;66401;42.016;21.454;2024-03-17T04:44:41;98575.09;;;11.67;78.19
62789;BME280;66401;42.016;21.454;2024-03-17T04:47:08;98575.88;;;11.61;79.17
62789;BME280;66401;42.016;21.454;2024-03-17T04:49:38;98579.78;;;11.44;79.74
62789;BME280;66401;42.016;21.454;2024-03-17T04:52:05;98579.78;;;11.44;80.10
62789;BME280;66401;42.016;21.454;2024-03-17T04:54:31;98581.78;;;11.42;80.70
62789;BME280;66401;42.016;21.454;2024-03-17T04:56:57;98581.81;;;11.49;79.77
62789;BME280;66401;42.016;21.454;2024-03-17T04:59:22;98585.47;;;11.54;79.10
62789;BME280;66401;42.016;21.454;2024-03-17T05:01:48;98576.41;;;11.50;80.06
62789;BME280;66401;42.016;21.454;2024-03-17T05:04:14;98596.38;;;11.64;78.89
62789;BME280;66401;42.016;21.454;2024-03-17T05:06:40;98589.69;;;11.55;79.90
62789;BME280;66401;42.016;21.454;2024-03-17T05:09:07;98598.31;;;11.56;79.32
62789;BME280;66401;42.016;21.454;2024-03-17T05:11:33;98601.97;;;11.61;79.40
62789;BME280;66401;42.016;21.454;2024-03-17T05:14:00;98593.53;;;11.59;79.91
62789;BME280;66401;42.016;21.454;2024-03-17T05:16:26;98600.44;;;11.73;79.36
62789;BME280;66401;42.016;21.454;2024-03-17T05:18:55;98606.56;;;11.81;78.50
62789;BME280;66401;42.016;21.454;2024-03-17T05:21:20;98614.00;;;11.84;78.07
62789;BME280;66401;42.016;21.454;2024-03-17T05:23:47;98615.84;;;11.90;77.35
62789;BME280;66401;42.016;21.454;2024-03-17T05:26:13;98623.91;;;11.95;76.77
62789;BME280;66401;42.016;21.454;2024-03-17T05:28:39;98619.47;;;11.89;77.59
62789;BME280;66401;42.016;21.454;2024-03-17T05:31:04;98618.31;;;11.98;76.81
62789;BME280;66401;42.016;21.454;2024-03-17T05:33:30;98619.47;;;11.89;78.01
62789;BME280;66401;42.016;21.454;2024-03-17T05:35:58;98621.94;;;12.03;76.75
62789;BME280;66401;42.016;21.454;2024-03-17T05:38:25;98621.13;;;12.03;77.70
62789;BME280;66401;42.016;21.454;2024-03-17T05:40:54;98623.91;;;11.95;77.46
62789;BME280;66401;42.016;21.454;2024-03-17T05:43:21;98620.72;;;11.99;77.40
62789;BME280;66401;42.016;21.454;2024-03-17T05:45:47;98625.16;;;11.99;77.92
62789;BME280;66401;42.016;21.454;2024-03-17T05:48:12;98627.31;;;11.95;77.10
62789;BME280;66401;42.016;21.454;2024-03-17T05:50:38;98626.81;;;12.13;75.42
62789;BME280;66401;42.016;21.454;2024-03-17T05:53:05;98628.38;;;12.01;75.39
62789;BME280;66401;42.016;21.454;2024-03-17T05:55:30;98632.84;;;12.07;76.39
62789;BME280;66401;42.016;21.454;2024-03-17T05:57:56;98631.38;;;11.98;76.78
62789;BME280;66401;42.016;21.454;2024-03-17T06:00:22;98633.97;;;11.98;76.70
62789;BME280;66401;42.016;21.454;2024-03-17T06:02:47;98638.66;;;12.09;75.88
62789;BME280;66401;42.016;21.454;2024-03-17T06:05:14;98637.84;;;12.09;77.21
62789;BME280;66401;42.016;21.454;2024-03-17T06:07:40;98640.03;;;12.05;76.29
62789;BME280;66401;42.016;21.454;2024-03-17T06:10:06;98638.06;;;12.14;75.31
62789;BME280;66401;42.016;21.454;2024-03-17T06:12:32;98638.06;;;12.07;75.79
62789;BME280;66401;42.016;21.454;2024-03-17T06:14:57;98642.56;;;12.26;76.01
62789;BME280;66401;42.016;21.454;2024-03-17T06:17:23;98649.41;;;12.27;75.55
62789;BME280;66401;42.016;21.454;2024-03-17T06:19:48;98647.47;;;12.43;74.61
62789;BME280;66401;42.016;21.454;2024-03-17T06:22:14;98655.19;;;12.64;73.94
62789;BME280;66401;42.016;21.454;2024-03-17T06:24:39;98653.03;;;12.74;74.91
62789;BME280;66401;42.016;21.454;2024-03-17T06:27:05;98669.53;;;12.81;74.86
62789;BME280;66401;42.016;21.454;2024-03-17T06:29:32;98652.84;;;12.82;74.34
62789;BME280;66401;42.016;21.454;2024-03-17T06:31:58;98662.56;;;12.95;73.23
62789;BME280;66401;42.016;21.454;2024-03-17T06:34:23;98664.91;;;12.83;73.47
62789;BME280;66401;42.016;21.454;2024-03-17T06:36:49;98671.78;;;12.91;73.28
62789;BME280;66401;42.016;21.454;2024-03-17T06:39:14;98671.59;;;12.99;73.01
62789;BME280;66401;42.016;21.454;2024-03-17T06:41:44;98669.06;;;13.19;71.08
62789;BME280;66401;42.016;21.454;2024-03-17T06:44:10;98679.16;;;13.35;71.35
62789;BME280;66401;42.016;21.454;2024-03-17T06:46:35;98678.88;;;13.17;71.26
62789;BME280;66401;42.016;21.454;2024-03-17T06:49:00;98672.09;;;13.23;69.85
62789;BME280;66401;42.016;21.454;2024-03-17T06:51:26;98679.56;;;13.32;71.03
62789;BME280;66401;42.016;21.454;2024-03-17T06:53:51;98677.94;;;13.31;71.16
62789;BME280;66401;42.016;21.454;2024-03-17T06:56:17;98683.38;;;13.50;70.29
62789;BME280;66401;42.016;21.454;2024-03-17T06:58:43;98684.19;;;13.50;68.90
62789;BME280;66401;42.016;21.454;2024-03-17T07:01:09;98679.97;;;13.69;68.50
62789;BME280;66401;42.016;21.454;2024-03-17T07:03:35;98686.22;;;13.94;68.20
62789;BME280;66401;42.016;21.454;2024-03-17T07:06:01;98682.81;;;13.74;68.05
62789;BME280;66401;42.016;21.454;2024-03-17T07:08:31;98679.59;;;13.72;68.88
62789;BME280;66401;42.016;21.454;2024-03-17T07:11:04;98685.22;;;14.02;66.27
62789;BME280;66401;42.016;21.454;2024-03-17T07:13:34;98689.41;;;14.16;66.85
62789;BME280;66401;42.016;21.454;2024-03-17T07:16:01;98692.06;;;14.10;65.83
62789;BME280;66401;42.016;21.454;2024-03-17T07:18:28;98676.31;;;14.23;65.62
62789;BME280;66401;42.016;21.454;2024-03-17T07:20:56;98695.22;;;14.51;65.03
62789;BME280;66401;42.016;21.454;2024-03-17T07:23:23;98681.94;;;14.98;64.56
62789;BME280;66401;42.016;21.454;2024-03-17T07:25:55;98698.03;;;15.39;62.40
62789;BME280;66401;42.016;21.454;2024-03-17T07:28:21;98692.09;;;15.19;60.87
62789;BME280;66401;42.016;21.454;2024-03-17T07:30:52;98694.44;;;14.96;62.69
62789;BME280;66401;42.016;21.454;2024-03-17T07:33:18;98692.47;;;15.23;61.44
62789;BME280;66401;42.016;21.454;2024-03-17T07:35:49;98693.59;;;15.40;61.87
62789;BME280;66401;42.016;21.454;2024-03-17T07:38:14;98700.69;;;15.33;62.51
62789;BME280;66401;42.016;21.454;2024-03-17T07:40:41;98706.56;;;15.35;61.90
62789;BME280;66401;42.016;21.454;2024-03-17T07:43:06;98706.56;;;15.35;62.57
62789;BME280;66401;42.016;21.454;2024-03-17T07:45:32;98700.88;;;15.38;62.32
62789;BME280;66401;42.016;21.454;2024-03-17T07:47:57;98701.25;;;15.03;61.50
62789;BME280;66401;42.016;21.454;2024-03-17T07:50:24;98691.28;;;15.18;62.47
62789;BME280;66401;42.016;21.454;2024-03-17T07:52:49;98697.75;;;15.54;61.44
62789;BME280;66401;42.016;21.454;2024-03-17T07:55:15;98701.31;;;15.66;61.91
62789;BME280;66401;42.016;21.454;2024-03-17T07:57:41;98704.63;;;15.80;61.40
62789;BME280;66401;42.016;21.454;2024-03-17T08:00:07;98701.03;;;16.43;59.68
62789;BME280;66401;42.016;21.454;2024-03-17T08:02:47;98702.13;;;16.53;60.29
62789;BME280;66401;42.016;21.454;2024-03-17T08:05:13;98693.88;;;16.68;58.28
62789;BME280;66401;42.016;21.454;2024-03-17T08:07:39;98702.28;;;16.77;57.26
62789;BME280;66401;42.016;21.454;2024-03-17T08:10:05;98698.19;;;16.63;58.23
62789;BME280;66401;42.016;21.454;2024-03-17T08:12:31;98694.50;;;16.70;58.90
62789;BME280;66401;42.016;21.454;2024-03-17T08:14:56;98683.50;;;16.92;58.04
62789;BME280;66401;42.016;21.454;2024-03-17T08:17:22;98692.84;;;16.87;57.91
62789;BME280;66401;42.016;21.454;2024-03-17T08:19:47;98700.25;;;18.39;55.33
62789;BME280;66401;42.016;21.454;2024-03-17T08:22:13;98692.13;;;18.29;54.38
62789;BME280;66401;42.016;21.454;2024-03-17T08:24:40;98697.94;;;18.66;51.75
62789;BME280;66401;42.016;21.454;2024-03-17T08:27:05;98684.03;;;19.11;49.65
62789;BME280;66401;42.016;21.454;2024-03-17T08:29:31;98685.88;;;19.72;48.29
62789;BME280;66401;42.016;21.454;2024-03-17T08:31:58;98674.06;;;20.52;46.31
62789;BME280;66401;42.016;21.454;2024-03-17T08:34:24;98675.22;;;20.83;47.29
62789;BME280;66401;42.016;21.454;2024-03-17T08:36:50;98680.25;;;20.02;46.17
62789;BME280;66401;42.016;21.454;2024-03-17T08:39:15;98670.34;;;18.85;50.22
62789;BME280;66401;42.016;21.454;2024-03-17T08:41:40;98674.47;;;18.93;49.06
62789;BME280;66401;42.016;21.454;2024-03-17T08:44:06;98668.84;;;18.90;48.13
62789;BME280;66401;42.016;21.454;2024-03-17T08:46:32;98666.16;;;19.97;46.30
62789;BME280;66401;42.016;21.454;2024-03-17T08:48:58;98667.81;;;20.42;45.20
62789;BME280;66401;42.016;21.454;2024-03-17T08:51:23;98670.44;;;20.80;44.07
62789;BME280;66401;42.016;21.454;2024-03-17T08:53:49;98639.56;;;20.04;47.29
62789;BME280;66401;42.016;21.454;2024-03-17T08:56:14;98661.50;;;19.54;47.60
62789;BME280;66401;42.016;21.454;2024-03-17T08:58:40;98665.09;;;19.59;47.41
62789;BME280;66401;42.016;21.454;2024-03-17T09:01:06;98659.84;;;18.74;48.03
62789;BME280;66401;42.016;21.454;2024-03-17T09:03:36;98655.38;;;18.63;48.01
62789;BME280;66401;42.016;21.454;2024-03-17T09:06:02;98670.94;;;18.24;50.38
62789;BME280;66401;42.016;21.454;2024-03-17T09:08:28;98670.34;;;18.34;52.16
62789;BME280;66401;42.016;21.454;2024-03-17T09:10:54;98666.22;;;18.26;51.41
62789;BME280;66401;42.016;21.454;2024-03-17T09:13:22;98668.28;;;18.00;53.56
62789;BME280;66401;42.016;21.454;2024-03-17T09:16:01;98667.81;;;18.03;53.29
62789;BME280;66401;42.016;21.454;2024-03-17T09:18:28;98664.16;;;18.28;52.12
62789;BME280;66401;42.016;21.454;2024-03-17T09:23:26;98663.53;;;17.56;53.07
62789;BME280;66401;42.016;21.454;2024-03-17T09:26:07;98665.59;;;16.82;56.97
62789;BME280;66401;42.016;21.454;2024-03-17T09:28:36;98668.75;;;16.72;56.05
62789;BME280;66401;42.016;21.454;2024-03-17T09:31:02;98664.81;;;16.81;54.97
62789;BME280;66401;42.016;21.454;2024-03-17T09:33:33;98661.81;;;16.23;55.25
62789;BME280;66401;42.016;21.454;2024-03-17T09:36:01;98662.75;;;16.28;56.49
62789;BME280;66401;42.016;21.454;2024-03-17T09:38:28;98659.81;;;16.18;56.83
62789;BME280;66401;42.016;21.454;2024-03-17T09:40:54;98668.66;;;16.06;57.83
62789;BME280;66401;42.016;21.454;2024-03-17T09:43:23;98664.91;;;15.95;57.54
62789;BME280;66401;42.016;21.454;2024-03-17T09:45:49;98667.88;;;16.23;56.11
62789;BME280;66401;42.016;21.454;2024-03-17T09:48:17;98652.38;;;16.15;56.06
62789;BME280;66401;42.016;21.454;2024-03-17T09:50:50;98660.81;;;15.99;57.39
62789;BME280;66401;42.016;21.454;2024-03-17T09:53:26;98657.06;;;16.13;56.91
62789;BME280;66401;42.016;21.454;2024-03-17T09:55:57;98662.72;;;16.10;57.94
62789;BME280;66401;42.016;21.454;2024-03-17T09:58:23;98657.19;;;16.55;56.41
62789;BME280;66401;42.016;21.454;2024-03-17T10:00:49;98652.09;;;16.60;54.67
62789;BME280;66401;42.016;21.454;2024-03-17T10:03:44;98662.19;;;16.81;55.58
62789;BME280;66401;42.016;21.454;2024-03-17T10:06:14;98650.09;;;16.92;54.76
62789;BME280;66401;42.016;21.454;2024-03-17T10:11:09;98663.97;;;17.41;50.45
62789;BME280;66401;42.016;21.454;2024-03-17T10:13:36;98663.47;;;17.74;51.71
62789;BME280;66401;42.016;21.454;2024-03-17T10:16:02;98661.81;;;17.50;51.10
62789;BME280;66401;42.016;21.454;2024-03-17T10:18:28;98666.22;;;18.02;50.46
62789;BME280;66401;42.016;21.454;2024-03-17T10:20:53;98663.88;;;18.65;49.07
62789;BME280;66401;42.016;21.454;2024-03-17T10:23:24;98658.69;;;18.58;50.50
62789;BME280;66401;42.016;21.454;2024-03-17T10:25:50;98655.78;;;18.83;48.75
62789;BME280;66401;42.016;21.454;2024-03-17T10:28:17;98656.31;;;18.56;48.86
62789;BME280;66401;42.016;21.454;2024-03-17T10:30:59;98659.63;;;18.52;49.08
62789;BME280;66401;42.016;21.454;2024-03-17T10:33:26;98631.28;;;17.72;50.95
62789;BME280;66401;42.016;21.454;2024-03-17T10:35:58;98656.16;;;17.99;50.96
62789;BME280;66401;42.016;21.454;2024-03-17T10:38:29;98655.94;;;17.78;51.62
62789;BME280;66401;42.016;21.454;2024-03-17T10:40:54;98649.72;;;17.72;51.71
62789;BME280;66401;42.016;21.454;2024-03-17T10:43:20;98654.09;;;17.90;50.99
62789;BME280;66401;42.016;21.454;2024-03-17T10:45:53;98657.06;;;17.82;51.22
62789;BME280;66401;42.016;21.454;2024-03-17T10:48:23;98649.22;;;17.52;51.44
62789;BME280;66401;42.016;21.454;2024-03-17T10:50:52;98651.88;;;17.10;53.93
62789;BME280;66401;42.016;21.454;2024-03-17T10:53:23;98651.69;;;17.23;53.20
62789;BME280;66401;42.016;21.454;2024-03-17T10:56:04;98653.31;;;18.65;50.90
62789;BME280;66401;42.016;21.454;2024-03-17T10:58:44;98649.97;;;20.32;46.00
62789;BME280;66401;42.016;21.454;2024-03-17T11:01:15;98647.31;;;22.31;42.12
62789;BME280;66401;42.016;21.454;2024-03-17T11:03:41;98664.63;;;23.78;39.40
62789;BME280;66401;42.016;21.454;2024-03-17T11:06:09;98654.56;;;22.04;41.19
62789;BME280;66401;42.016;21.454;2024-03-17T11:08:36;98629.50;;;21.15;43.52
62789;BME280;66401;42.016;21.454;2024-03-17T11:11:03;98649.28;;;21.07;42.55
62789;BME280;66401;42.016;21.454;2024-03-17T11:13:31;98629.94;;;21.71;41.91
62789;BME280;66401;42.016;21.454;2024-03-17T11:15:58;98647.97;;;21.69;41.76
62789;BME280;66401;42.016;21.454;2024-03-17T11:23:27;98633.19;;;19.83;44.62
62789;BME280;66401;42.016;21.454;2024-03-17T11:25:54;98630.44;;;19.44;46.04
62789;BME280;66401;42.016;21.454;2024-03-17T11:31:32;98644.19;;;18.32;48.61
62789;BME280;66401;42.016;21.454;2024-03-17T11:33:59;98636.13;;;17.87;48.86
62789;BME280;66401;42.016;21.454;2024-03-17T11:38:58;98627.34;;;17.39;50.05
62789;BME280;66401;42.016;21.454;2024-03-17T11:49:25;98617.84;;;17.38;51.50
62789;BME280;66401;42.016;21.454;2024-03-17T11:51:53;98622.88;;;17.52;49.98
62789;BME280;66401;42.016;21.454;2024-03-17T11:54:21;98625.69;;;17.80;50.33
62789;BME280;66401;42.016;21.454;2024-03-17T11:56:51;98619.94;;;17.83;49.31
62789;BME280;66401;42.016;21.454;2024-03-17T11:59:20;98622.47;;;17.78;50.35
62789;BME280;66401;42.016;21.454;2024-03-17T12:01:47;98611.56;;;17.63;50.78
62789;BME280;66401;42.016;21.454;2024-03-17T12:04:15;98612.84;;;17.72;50.80
62789;BME280;66401;42.016;21.454;2024-03-17T12:06:58;98613.97;;;17.99;49.56
62789;BME280;66401;42.016;21.454;2024-03-17T12:09:30;98599.28;;;18.03;49.35
62789;BME280;66401;42.016;21.454;2024-03-17T12:12:09;98605.41;;;18.84;46.94
62789;BME280;66401;42.016;21.454;2024-03-17T12:14:38;98618.59;;;19.30;46.41
62789;BME280;66401;42.016;21.454;2024-03-17T12:17:08;98607.59;;;19.04;47.25
62789;BME280;66401;42.016;21.454;2024-03-17T12:19:34;98598.81;;;20.21;44.21
62789;BME280;66401;42.016;21.454;2024-03-17T12:22:02;98598.69;;;20.82;42.75
62789;BME280;66401;42.016;21.454;2024-03-17T12:24:29;98596.84;;;21.36;41.25
62789;BME280;66401;42.016;21.454;2024-03-17T12:26:57;98601.09;;;21.10;40.57
62789;BME280;66401;42.016;21.454;2024-03-17T12:29:37;98594.72;;;21.06;40.64
62789;BME280;66401;42.016;21.454;2024-03-17T12:32:26;98590.69;;;20.50;43.40
62789;BME280;66401;42.016;21.454;2024-03-17T12:34:54;98584.81;;;20.97;41.27
62789;BME280;66401;42.016;21.454;2024-03-17T12:37:25;98589.31;;;20.69;41.96
62789;BME280;66401;42.016;21.454;2024-03-17T12:39:53;98589.63;;;21.00;41.25
62789;BME280;66401;42.016;21.454;2024-03-17T12:42:29;98593.47;;;20.38;42.34
62789;BME280;66401;42.016;21.454;2024-03-17T12:45:01;98590.44;;;19.69;44.58
62789;BME280;66401;42.016;21.454;2024-03-17T12:47:28;98581.28;;;19.09;46.46
62789;BME280;66401;42.016;21.454;2024-03-17T12:49:55;98595.66;;;18.45;47.48
62789;BME280;66401;42.016;21.454;2024-03-17T12:55:07;98588.63;;;18.50;46.87
62789;BME280;66401;42.016;21.454;2024-03-17T13:00:44;98554.09;;;18.35;47.68
62789;BME280;66401;42.016;21.454;2024-03-17T13:03:23;98573.88;;;18.78;46.95
62789;BME280;66401;42.016;21.454;2024-03-17T13:05:49;98562.25;;;18.50;46.66
62789;BME280;66401;42.016;21.454;2024-03-17T13:08:15;98573.34;;;18.64;46.57
62789;BME280;66401;42.016;21.454;2024-03-17T13:10:41;98563.25;;;18.73;47.59
62789;BME280;66401;42.016;21.454;2024-03-17T13:13:08;98562.81;;;18.64;47.17
62789;BME280;66401;42.016;21.454;2024-03-17T13:15:34;98551.72;;;18.50;48.18
62789;BME280;66401;42.016;21.454;2024-03-17T13:18:04;98558.03;;;18.49;47.33
62789;BME280;66401;42.016;21.454;2024-03-17T13:20:31;98563.16;;;18.68;46.52